createdAt,value
2018-11-04T00:03:16.632Z,98396.00
2018-11-04T00:07:19.124Z,98394.00
2018-11-04T00:11:21.596Z,98392.00
2018-11-04T00:15:23.872Z,98393.00
2018-11-04T00:19:26.230Z,98390.00
2018-11-04T00:23:28.541Z,98386.00
2018-11-04T00:27:30.860Z,98384.00
2018-11-04T00:31:33.136Z,98379.00
2018-11-04T00:35:35.477Z,98374.00
2018-11-04T00:39:37.765Z,98379.00
2018-11-04T00:43:40.068Z,98380.00
2018-11-04T00:47:42.405Z,98381.00
2018-11-04T00:51:44.739Z,98373.00
2018-11-04T00:55:47.063Z,98359.00
2018-11-04T00:59:49.420Z,98360.00
2018-11-04T01:03:51.747Z,98351.00
2018-11-04T01:07:54.079Z,98346.00
2018-11-04T01:11:56.396Z,98339.00
2018-11-04T01:15:58.734Z,98336.00
2018-11-04T01:20:01.116Z,98319.00
2018-11-04T01:24:03.475Z,98315.00
2018-11-04T01:28:05.939Z,98303.00
2018-11-04T01:32:08.341Z,98304.00
2018-11-04T01:36:10.680Z,98289.00
2018-11-04T01:40:13.074Z,98290.00
2018-11-04T01:44:16.044Z,98289.00
2018-11-04T01:48:18.429Z,98281.00
2018-11-04T01:52:20.763Z,98275.00
2018-11-04T01:56:23.281Z,98260.00
2018-11-04T02:00:25.563Z,98256.00
2018-11-04T02:04:27.850Z,98256.00
2018-11-04T02:08:30.198Z,98244.00
2018-11-04T02:12:32.489Z,98236.00
2018-11-04T02:16:35.541Z,98227.00
2018-11-04T02:20:37.918Z,98220.00
2018-11-04T02:24:40.238Z,98219.00
2018-11-04T02:28:42.590Z,98218.00
2018-11-04T02:32:45.740Z,98214.00
2018-11-04T02:36:48.063Z,98208.00
2018-11-04T02:40:50.364Z,98201.00
2018-11-04T02:44:52.658Z,98209.00
2018-11-04T02:48:54.988Z,98197.00
2018-11-04T02:52:57.300Z,98198.00
2018-11-04T02:56:59.730Z,98194.00
2018-11-04T03:01:02.395Z,98194.00
2018-11-04T03:05:06.202Z,98189.00
2018-11-04T03:09:09.242Z,98192.00
2018-11-04T03:13:11.830Z,98178.00
2018-11-04T03:17:14.217Z,98175.00
2018-11-04T03:21:16.970Z,98176.00
2018-11-04T03:25:19.282Z,98176.00
2018-11-04T03:29:21.628Z,98165.00
2018-11-04T03:33:23.960Z,98169.00
2018-11-04T03:37:26.384Z,98153.00
2018-11-04T03:41:28.794Z,98154.00
2018-11-04T03:45:31.232Z,98157.00
2018-11-04T03:49:33.642Z,98157.00
2018-11-04T03:53:36.099Z,98156.00
2018-11-04T03:57:38.519Z,98160.00
2018-11-04T04:01:40.824Z,98159.00
2018-11-04T04:05:43.174Z,98154.00
2018-11-04T04:09:45.478Z,98149.00
2018-11-04T04:13:47.756Z,98145.00
2018-11-04T04:17:50.022Z,98151.00
2018-11-04T04:21:52.352Z,98146.00
2018-11-04T04:25:54.624Z,98145.00
2018-11-04T04:29:57.119Z,98139.00
2018-11-04T04:33:59.462Z,98144.00
2018-11-04T04:38:07.616Z,98142.00
2018-11-04T04:42:09.981Z,98135.00
2018-11-04T04:46:12.309Z,98130.00
2018-11-04T04:50:14.631Z,98132.00
2018-11-04T04:54:16.961Z,98129.00
2018-11-04T04:58:19.478Z,98129.00
2018-11-04T05:02:21.807Z,98127.00
2018-11-04T05:06:24.197Z,98120.00
2018-11-04T05:10:26.501Z,98126.00
2018-11-04T05:14:28.893Z,98124.00
2018-11-04T05:18:31.131Z,98126.00
2018-11-04T05:22:33.565Z,98128.00
2018-11-04T05:26:35.897Z,98125.00
2018-11-04T05:30:38.239Z,98124.00
2018-11-04T05:34:50.287Z,98118.00
2018-11-04T05:38:52.646Z,98111.00
2018-11-04T05:42:55.018Z,98105.00
2018-11-04T05:46:57.311Z,98108.00
2018-11-04T05:50:59.666Z,98107.00
2018-11-04T05:55:01.999Z,98095.00
2018-11-04T05:59:04.382Z,98103.00
2018-11-04T06:03:06.678Z,98101.00
2018-11-04T06:07:09.024Z,98097.00
2018-11-04T06:11:11.362Z,98101.00
2018-11-04T06:15:14.136Z,98096.00
2018-11-04T06:19:16.497Z,98108.00
2018-11-04T06:23:18.832Z,98105.00
2018-11-04T06:27:21.185Z,98105.00
2018-11-04T06:31:23.523Z,98114.00
2018-11-04T06:35:25.837Z,98110.00
2018-11-04T06:39:28.185Z,98126.00
2018-11-04T06:43:30.542Z,98114.00
2018-11-04T06:47:32.895Z,98117.00
2018-11-04T06:51:35.269Z,98115.00
2018-11-04T06:55:37.606Z,98107.00
2018-11-04T06:59:39.981Z,98110.00
2018-11-04T07:03:53.958Z,98114.00
2018-11-04T07:07:56.343Z,98111.00
2018-11-04T07:11:58.758Z,98119.00
2018-11-04T07:16:01.185Z,98113.00
2018-11-04T07:20:04.048Z,98109.00
2018-11-04T08:08:44.922Z,98083.00
2018-11-04T08:12:47.668Z,98083.00
2018-11-04T08:16:50.588Z,98081.00
2018-11-04T08:20:53.317Z,98080.00
2018-11-04T08:29:23.663Z,98089.00
2018-11-04T08:33:26.269Z,98092.00
2018-11-04T08:37:28.708Z,98074.00
2018-11-04T08:41:31.211Z,98090.00
2018-11-04T08:45:33.799Z,98086.00
2018-11-04T08:49:36.327Z,98074.00
2018-11-04T08:53:38.865Z,98068.00
2018-11-04T08:57:41.519Z,98072.00
2018-11-04T09:01:44.081Z,98071.00
2018-11-04T09:05:46.502Z,98077.00
2018-11-04T09:09:49.077Z,98071.00
2018-11-04T09:13:51.582Z,98055.00
2018-11-04T09:17:54.152Z,98058.00
2018-11-04T09:21:56.759Z,98054.00
2018-11-04T09:25:59.122Z,98062.00
2018-11-04T09:30:01.667Z,98061.00
2018-11-04T09:34:04.445Z,98051.00
2018-11-04T09:38:07.157Z,98054.00
2018-11-04T09:42:09.631Z,98055.00
2018-11-04T09:46:12.116Z,98040.00
2018-11-04T09:50:21.255Z,98040.00
2018-11-04T09:54:23.822Z,98035.00
2018-11-04T09:58:26.336Z,98040.00
2018-11-04T10:02:28.914Z,98030.00
2018-11-04T10:06:31.557Z,98039.00
2018-11-04T10:10:34.110Z,98032.00
2018-11-04T10:14:36.705Z,98033.00
2018-11-04T10:18:39.287Z,98021.00
2018-11-04T10:22:42.001Z,98022.00
2018-11-04T10:26:44.602Z,98011.00
2018-11-04T10:30:47.121Z,98002.00
2018-11-04T10:34:51.828Z,97998.00
2018-11-04T10:38:54.334Z,97993.00
2018-11-04T10:42:57.606Z,97983.00
2018-11-04T10:47:00.265Z,97978.00
2018-11-04T10:51:03.545Z,97965.00
2018-11-04T10:55:07.801Z,97966.00
2018-11-04T10:59:10.296Z,97972.00
2018-11-04T11:03:13.140Z,97967.00
2018-11-04T11:07:15.757Z,97971.00
2018-11-04T11:11:18.453Z,97970.00
2018-11-04T11:15:20.980Z,97954.00
2018-11-04T11:19:23.614Z,97957.00
2018-11-04T11:23:26.305Z,97951.00
2018-11-04T11:27:29.116Z,97935.00
2018-11-04T11:31:31.737Z,97930.00
2018-11-04T11:35:35.214Z,97851.00
2018-11-04T11:39:37.706Z,97907.00
2018-11-04T11:43:40.169Z,97899.00
2018-11-04T11:47:42.610Z,97894.00
2018-11-04T11:51:45.216Z,97891.00
2018-11-04T11:55:48.558Z,97881.00
2018-11-04T11:59:51.344Z,97881.00
2018-11-04T12:03:53.928Z,97873.00
2018-11-04T12:07:56.764Z,97860.00
2018-11-04T12:11:59.259Z,97866.00
2018-11-04T12:16:01.890Z,97861.00
2018-11-04T12:20:06.028Z,97854.00
2018-11-04T12:24:09.178Z,97854.00
2018-11-04T12:28:12.099Z,97837.00
2018-11-04T12:32:14.532Z,97840.00
2018-11-04T12:36:18.390Z,97828.00
2018-11-04T12:40:21.987Z,97827.00
2018-11-04T12:44:25.013Z,97833.00
2018-11-04T12:48:27.607Z,97818.00
2018-11-04T12:52:30.151Z,97818.00
2018-11-04T12:56:32.618Z,97819.00
2018-11-04T13:00:35.121Z,97818.00
2018-11-04T13:04:38.347Z,97823.00
2018-11-04T13:08:41.945Z,97829.00
2018-11-04T13:12:44.599Z,97817.00
2018-11-04T13:16:47.274Z,97823.00
2018-11-04T13:20:50.378Z,97810.00
2018-11-04T13:24:53.507Z,97826.00
2018-11-04T13:28:56.169Z,97809.00
2018-11-04T13:32:59.333Z,97798.00
2018-11-04T13:37:03.359Z,97792.00
2018-11-04T13:41:06.879Z,97789.00
2018-11-04T13:45:10.223Z,97793.00
2018-11-04T13:49:12.768Z,97782.00
2018-11-04T13:53:15.248Z,97778.00
2018-11-04T13:57:17.754Z,97769.00
2018-11-04T14:01:21.245Z,97757.00
2018-11-04T14:05:23.735Z,97757.00
2018-11-04T14:09:26.690Z,97745.00
2018-11-04T14:13:31.466Z,97753.00
2018-11-04T14:17:34.552Z,97755.00
2018-11-04T14:21:37.704Z,97753.00
2018-11-04T14:25:41.043Z,97747.00
2018-11-04T14:29:43.662Z,97746.00
2018-11-04T14:33:46.979Z,97751.00
2018-11-04T14:37:49.972Z,97753.00
2018-11-04T14:41:52.454Z,97741.00
2018-11-04T14:45:55.096Z,97730.00
2018-11-04T14:49:58.109Z,97723.00
2018-11-04T14:54:00.875Z,97734.00
2018-11-04T14:58:05.590Z,97742.00
2018-11-04T15:02:08.304Z,97740.00
2018-11-04T15:06:11.212Z,97734.00
2018-11-04T15:10:14.892Z,97721.00
2018-11-04T15:14:17.852Z,97705.00
2018-11-04T15:18:22.198Z,97694.00
2018-11-04T15:22:25.040Z,97699.00
2018-11-04T15:26:29.512Z,97696.00
2018-11-04T15:30:32.219Z,97693.00
2018-11-04T15:34:35.074Z,97698.00
2018-11-04T15:38:38.484Z,97705.00
2018-11-04T15:42:41.772Z,97703.00
2018-11-04T15:46:44.860Z,97704.00
2018-11-04T15:50:47.461Z,97711.00
2018-11-04T15:54:50.279Z,97707.00
2018-11-04T15:58:52.822Z,97698.00
2018-11-04T16:02:56.074Z,97704.00
2018-11-04T16:06:59.202Z,97707.00
2018-11-04T16:11:02.331Z,97694.00
2018-11-04T16:15:07.065Z,97687.00
2018-11-04T16:19:09.763Z,97692.00
2018-11-04T16:23:12.518Z,97688.00
2018-11-04T16:27:15.787Z,97682.00
2018-11-04T16:31:18.419Z,97691.00
2018-11-04T16:35:21.396Z,97706.00
2018-11-04T16:39:24.588Z,97694.00
2018-11-04T16:43:27.681Z,97683.00
2018-11-04T16:47:30.329Z,97682.00
2018-11-04T16:51:33.128Z,97679.00
2018-11-04T16:55:35.687Z,97680.00
2018-11-04T16:59:39.577Z,97674.00
2018-11-04T17:03:42.251Z,97677.00
2018-11-04T17:07:44.869Z,97674.00
2018-11-04T17:11:47.860Z,97684.00
2018-11-04T17:15:51.232Z,97668.00
2018-11-04T17:19:54.003Z,97680.00
2018-11-04T17:23:56.517Z,97677.00
2018-11-04T17:27:59.996Z,97674.00
2018-11-04T17:32:02.926Z,97679.00
2018-11-04T17:36:05.775Z,97680.00
2018-11-04T17:40:09.794Z,97688.00
2018-11-04T17:44:12.979Z,97689.00
2018-11-04T17:48:15.853Z,97679.00
2018-11-04T17:52:18.828Z,97666.00
2018-11-04T17:56:21.443Z,97671.00
2018-11-04T18:00:25.108Z,97664.00
2018-11-04T18:04:27.981Z,97666.00
2018-11-04T18:08:31.105Z,97661.00
2018-11-04T18:12:33.960Z,97663.00
2018-11-04T18:16:37.668Z,97667.00
2018-11-04T18:20:40.273Z,97674.00
2018-11-04T18:24:43.158Z,97664.00
2018-11-04T18:28:45.861Z,97675.00
2018-11-04T18:32:48.486Z,97664.00
2018-11-04T18:36:51.962Z,97665.00
2018-11-04T18:40:54.446Z,97661.00
2018-11-04T18:44:57.124Z,97654.00
2018-11-04T18:48:59.572Z,97645.00
2018-11-04T18:53:02.185Z,97641.00
2018-11-04T18:57:05.155Z,97631.00
2018-11-04T19:01:07.728Z,97635.00
2018-11-04T19:05:10.691Z,97635.00
2018-11-04T19:09:13.172Z,97642.00
2018-11-04T19:13:16.221Z,97630.00
2018-11-04T19:17:19.197Z,97635.00
2018-11-04T19:21:22.010Z,97635.00
2018-11-04T19:25:25.807Z,97635.00
2018-11-04T19:29:28.771Z,97639.00
2018-11-04T19:33:31.716Z,97657.00
2018-11-04T19:37:34.592Z,97660.00
2018-11-04T19:41:37.676Z,97661.00
2018-11-04T19:45:40.872Z,97643.00
2018-11-04T19:49:43.971Z,97647.00
2018-11-04T19:53:47.977Z,97646.00
2018-11-04T19:57:50.569Z,97644.00
2018-11-04T20:01:53.135Z,97640.00
2018-11-04T20:05:55.929Z,97641.00
2018-11-04T20:09:58.360Z,97639.00
2018-11-04T20:14:06.591Z,97620.00
2018-11-04T20:18:14.631Z,97636.00
2018-11-04T20:22:17.390Z,97629.00
2018-11-04T20:26:20.000Z,97631.00
2018-11-04T20:30:22.495Z,97632.00
2018-11-04T20:34:25.131Z,97626.00
2018-11-04T20:38:33.530Z,97631.00
2018-11-04T20:42:36.147Z,97637.00
2018-11-04T20:46:39.084Z,97633.00
2018-11-04T20:50:48.001Z,97626.00
2018-11-04T20:54:50.509Z,97619.00
2018-11-04T20:58:53.032Z,97613.00
2018-11-04T21:02:55.966Z,97606.00
2018-11-04T21:06:58.759Z,97594.00
2018-11-04T21:11:01.556Z,97591.00
2018-11-04T21:15:05.605Z,97575.00
2018-11-04T21:19:08.251Z,97590.00
2018-11-04T21:23:11.135Z,97579.00
2018-11-04T21:27:13.582Z,97564.00
2018-11-04T21:31:16.044Z,97553.00
2018-11-04T21:35:18.555Z,97548.00
2018-11-04T21:39:21.096Z,97554.00
2018-11-04T21:43:24.043Z,97557.00
2018-11-04T21:47:26.447Z,97553.00
2018-11-04T21:51:29.051Z,97538.00
2018-11-04T21:55:31.647Z,97536.00
2018-11-04T21:59:36.814Z,97549.00
2018-11-04T22:03:39.411Z,97531.00
2018-11-04T22:07:42.800Z,97545.00
2018-11-04T22:11:45.226Z,97547.00
2018-11-04T22:15:47.689Z,97548.00
2018-11-04T22:19:50.186Z,97553.00
2018-11-04T22:23:52.731Z,97551.00
2018-11-04T22:27:55.238Z,97551.00
2018-11-04T22:31:57.695Z,97546.00
2018-11-04T22:36:00.094Z,97535.00
2018-11-04T22:40:03.360Z,97543.00
2018-11-04T22:44:07.315Z,97549.00
2018-11-04T22:48:10.293Z,97534.00
2018-11-04T22:52:12.735Z,97529.00
2018-11-04T22:56:15.169Z,97543.00
2018-11-04T23:00:23.296Z,97537.00
2018-11-04T23:04:31.379Z,97536.00
2018-11-04T23:08:34.005Z,97532.00
2018-11-04T23:12:36.691Z,97520.00
2018-11-04T23:16:39.231Z,97516.00
2018-11-04T23:20:41.641Z,97500.00
2018-11-04T23:24:44.775Z,97494.00
2018-11-04T23:28:47.303Z,97481.00
2018-11-04T23:32:49.942Z,97476.00
2018-11-04T23:36:53.394Z,97475.00
2018-11-04T23:40:55.822Z,97467.00
2018-11-04T23:44:58.488Z,97470.00
2018-11-04T23:49:00.995Z,97465.00
2018-11-04T23:53:03.498Z,97465.00
2018-11-04T23:57:06.023Z,97452.00
